Estación Meteorológica Peña el Pijo (Robertgarden) [ 11/17/17 23:50:55 CET ]

Fecha Hora Presion(HPa) Temp (°C) Humedad % Rocio (°C) Viento ( m/s) Direccion Lluvia 1Hora(mm) Lluvia 24H(mm) LLuvia Total(mm)
2017-Aug-22 01:01:49 1014.400 19.2 72 14.0         1439.00
2017-Aug-22 02:01:57 1014.300 17.8 76 13.5         1439.00
2017-Aug-22 03:01:09 1014.100 17.1 78 13.2         1439.00
2017-Aug-22 04:01:07 1013.900 16.3 81 13.0         1439.00
2017-Aug-22 05:01:06 1013.900 15.8 82 12.8         1439.00
2017-Aug-22 06:01:06 1013.800 15.2 84 12.5         1439.00
2017-Aug-22 07:01:50 1013.700 14.8 84 12.1         1439.00
2017-Aug-22 08:01:54 1013.800 14.7 86 12.4         1439.00
2017-Aug-22 09:01:50 1013.700 18.8 84 16.0         1439.00
2017-Aug-22 10:01:57 1013.700 24.8 66 18.0         1439.00
2017-Aug-22 11:01:35 1013.600 31.0 45 17.6         1439.00
2017-Aug-22 12:01:56 1013.700 34.6 34 16.3 1.9 SE     1439.00
2017-Aug-22 13:01:42 1013.200 36.4 31 16.5         1439.00
2017-Aug-22 14:01:54 1013.000 35.9 31 16.1         1439.00
2017-Aug-22 15:01:46 1012.600 35.8 29 14.9         1439.00
2017-Aug-22 16:01:56 1012.000 36.5 27 14.3         1439.00
2017-Aug-22 17:01:55 1011.700 35.9 26 13.2         1439.00
2017-Aug-22 18:01:40 1011.700 34.6 27 12.7         1439.00
2017-Aug-22 19:01:42 1011.600 31.6 29 11.3         1439.00
2017-Aug-22 20:01:56 1011.600 29.4 34 11.8         1439.00
2017-Aug-22 21:01:48 1012.000 26.8 40 12.1         1439.00
2017-Aug-22 22:01:55 1012.600 24.5 45 11.8         1439.00
2017-Aug-22 23:01:41 1012.900 21.9 53 11.8         1439.00

Temperatura Máxima:36°    Temperatura Mínima:14°
Presión Máxima:1014.400 Hpa    Presión Mínima:1011.600 Hpa


Volver